Time;durP1;ratioP1;P1;durP2;ratioP2;P2;SDS_P1;SDS_P2;PMS_P1;PMS_P2;Temp;Humidity;BMP_temperature;BMP_pressure;BME280_temperature;BME280_humidity;BME280_pressure;Samples;Min_cycle;Max_cycle;Signal;HPM_P1;HPM_P2
2023/12/05 00:01:52;;;;;;;33.63;21.63;;;2.60;99.90;;;;;;5054028;28;20465;-55
2023/12/05 00:04:17;;;;;;;35.45;22.35;;;2.40;99.90;;;;;;5053762;28;20452;-55
2023/12/05 00:06:43;;;;;;;53.15;22.52;;;2.40;99.90;;;;;;5053531;28;20029;-55
2023/12/05 00:09:11;;;;;;;36.40;23.30;;;2.40;99.90;;;;;;5053671;28;20083;-55
2023/12/05 00:11:40;;;;;;;32.60;22.77;;;2.70;99.90;;;;;;5034801;28;20049;-55
2023/12/05 00:14:06;;;;;;;30.88;21.13;;;2.60;99.90;;;;;;5053935;28;20029;-55
2023/12/05 00:16:32;;;;;;;29.80;19.40;;;2.70;99.90;;;;;;5052479;28;20025;-55
2023/12/05 00:18:57;;;;;;;31.85;20.73;;;2.50;99.90;;;;;;5052346;28;20512;-55
2023/12/05 00:21:24;;;;;;;33.33;20.90;;;2.80;99.90;;;;;;5053458;28;20032;-55
2023/12/05 00:23:50;;;;;;;28.77;19.65;;;;;;;;;;5053574;28;20431;-56
2023/12/05 00:26:16;;;;;;;29.10;19.77;;;3.40;99.90;;;;;;5053102;28;20480;-56
2023/12/05 00:28:42;;;;;;;30.55;20.60;;;3.40;99.90;;;;;;5030520;28;20046;-55
2023/12/05 00:31:08;;;;;;;27.35;18.23;;;3.50;99.90;;;;;;5030904;28;20077;-55
2023/12/05 00:33:33;;;;;;;30.48;19.80;;;3.30;99.90;;;;;;5030887;28;20037;-55
2023/12/05 00:35:59;;;;;;;30.48;20.10;;;3.00;99.90;;;;;;5030935;28;20039;-55
2023/12/05 00:38:25;;;;;;;29.88;20.20;;;2.80;99.90;;;;;;5030835;28;20043;-56
2023/12/05 00:40:51;;;;;;;29.25;20.75;;;2.60;99.90;;;;;;5014076;28;20120;-55
2023/12/05 00:43:16;;;;;;;29.60;20.08;;;2.80;99.90;;;;;;5030618;28;20120;-55
2023/12/05 00:45:42;;;;;;;30.15;20.23;;;3.00;99.90;;;;;;5030539;28;20037;-55
2023/12/05 00:48:08;;;;;;;30.83;19.65;;;3.30;99.90;;;;;;5030621;28;20048;-55
2023/12/05 00:50:34;;;;;;;29.88;19.60;;;3.20;99.90;;;;;;5030752;28;20029;-56
2023/12/05 00:52:59;;;;;;;29.70;20.15;;;3.10;99.90;;;;;;5030478;28;20036;-55
2023/12/05 00:55:26;;;;;;;30.92;19.98;;;;;;;;;;5030788;28;20560;-55
2023/12/05 00:57:51;;;;;;;30.60;21.25;;;3.00;99.90;;;;;;5030373;28;20026;-55
2023/12/05 01:00:17;;;;;;;35.17;23.65;;;3.20;99.90;;;;;;5047631;28;20107;-55
2023/12/05 01:02:43;;;;;;;34.88;24.27;;;3.10;99.90;;;;;;5052767;28;20063;-55
2023/12/05 01:05:09;;;;;;;33.25;23.13;;;3.10;99.90;;;;;;5053043;28;20052;-55
2023/12/05 01:07:36;;;;;;;37.63;22.25;;;3.00;99.90;;;;;;5017386;28;20147;-55
2023/12/05 01:10:03;;;;;;;31.15;22.52;;;3.20;99.90;;;;;;5052967;28;20036;-55
2023/12/05 01:12:29;;;;;;;29.85;22.08;;;3.20;99.90;;;;;;5052899;28;20025;-55
2023/12/05 01:14:55;;;;;;;32.80;21.15;;;3.30;99.90;;;;;;5052568;28;20052;-56
2023/12/05 01:17:20;;;;;;;27.58;20.75;;;2.90;99.90;;;;;;5052698;28;20025;-55
2023/12/05 01:19:46;;;;;;;31.65;20.85;;;2.80;99.90;;;;;;5052152;28;20021;-55
2023/12/05 01:22:12;;;;;;;34.13;24.27;;;2.60;99.90;;;;;;5052393;28;20113;-55
2023/12/05 01:24:41;;;;;;;34.00;23.60;;;2.80;99.90;;;;;;5052583;28;20032;-55
2023/12/05 01:27:07;;;;;;;31.77;22.33;;;2.90;99.90;;;;;;5052439;28;20071;-55
2023/12/05 01:29:33;;;;;;;31.45;20.45;;;3.20;99.90;;;;;;5034422;28;20056;-56
2023/12/05 01:31:59;;;;;;;38.97;24.88;;;3.10;99.90;;;;;;5051936;28;20496;-55
2023/12/05 01:34:24;;;;;;;32.85;20.95;;;3.20;99.90;;;;;;5052714;28;20120;-55
2023/12/05 01:36:50;;;;;;;29.65;20.90;;;;;;;;;;5052758;28;20469;-55
2023/12/05 01:39:16;;;;;;;30.58;21.95;;;3.80;99.90;;;;;;5052220;28;20447;-56
2023/12/05 01:41:42;;;;;;;33.17;22.83;;;3.90;99.90;;;;;;5051004;28;20029;-56
2023/12/05 01:44:08;;;;;;;34.58;22.88;;;3.90;99.90;;;;;;5050829;28;20028;-55
2023/12/05 01:46:35;;;;;;;35.60;25.23;;;3.90;99.90;;;;;;5052228;28;20142;-55
2023/12/05 01:49:01;;;;;;;39.63;25.65;;;4.00;99.90;;;;;;5052208;28;20041;-55
2023/12/05 01:51:28;;;;;;;33.47;23.42;;;4.10;99.90;;;;;;5016984;28;20032;-55
2023/12/05 01:53:54;;;;;;;33.72;22.30;;;3.90;99.90;;;;;;5050755;28;20032;-55
2023/12/05 01:56:21;;;;;;;32.67;22.38;;;3.60;99.90;;;;;;5049843;28;20049;-54
2023/12/05 01:58:46;;;;;;;33.80;22.80;;;3.60;99.90;;;;;;5051874;28;20361;-55
2023/12/05 02:01:15;;;;;;;28.73;20.33;;;3.60;99.90;;;;;;5052058;28;20032;-55
2023/12/05 02:03:42;;;;;;;32.03;21.10;;;3.40;99.90;;;;;;5052122;28;20044;-55
2023/12/05 02:06:08;;;;;;;32.65;22.58;;;3.30;99.90;;;;;;5052324;28;20035;-55
2023/12/05 02:08:35;;;;;;;33.35;21.92;;;3.70;99.90;;;;;;5051975;28;20504;-55
2023/12/05 02:11:01;;;;;;;33.28;22.02;;;3.70;99.90;;;;;;5029213;28;20509;-55
2023/12/05 02:13:27;;;;;;;38.30;25.05;;;4.10;99.90;;;;;;4996528;28;20044;-55
2023/12/05 02:16:23;;;;;;;33.78;24.08;;;4.30;99.90;;;;;;5029585;28;20044;-55
2023/12/05 02:19:30;;;;;;;34.75;24.95;;;4.40;99.90;;;;;;5028507;28;20057;-56
2023/12/05 02:21:59;;;;;;;31.70;21.50;;;4.30;99.90;;;;;;5026866;28;20045;-55
2023/12/05 02:24:56;;;;;;;31.98;21.17;;;4.60;99.90;;;;;;5029469;28;20383;-55
2023/12/05 02:27:37;;;;;;;34.67;23.15;;;4.50;99.80;;;;;;5029259;28;20032;-55
2023/12/05 02:30:04;;;;;;;39.70;25.42;;;4.70;99.90;;;;;;5029868;28;20030;-55
2023/12/05 02:32:29;;;;;;;44.53;26.92;;;4.70;99.90;;;;;;5016614;28;20416;-55
2023/12/05 02:34:55;;;;;;;35.00;23.23;;;4.60;99.90;;;;;;5033441;28;20028;-55
2023/12/05 02:37:24;;;;;;;43.10;28.35;;;4.70;99.90;;;;;;5033375;28;20044;-56
2023/12/05 02:40:28;;;;;;;38.65;25.23;;;4.80;99.60;;;;;;5033125;28;20928;-55
2023/12/05 02:42:56;;;;;;;39.20;23.90;;;4.70;99.70;;;;;;5052298;28;20495;-56
2023/12/05 02:45:27;;;;;;;46.00;28.42;;;4.70;99.50;;;;;;5055479;28;20032;-55
2023/12/05 02:47:54;;;;;;;43.83;29.65;;;4.90;99.60;;;;;;5055432;28;20432;-55
2023/12/05 02:50:20;;;;;;;61.63;34.65;;;4.90;99.40;;;;;;5055367;28;20033;-55
2023/12/05 02:52:46;;;;;;;58.88;34.35;;;5.00;99.20;;;;;;5019899;28;20040;-57
2023/12/05 02:55:12;;;;;;;57.00;32.33;;;4.90;99.20;;;;;;5054165;28;20029;-56
2023/12/05 02:57:37;;;;;;;55.53;31.70;;;4.90;99.40;;;;;;5055027;28;20025;-55
2023/12/05 03:00:04;;;;;;;45.83;28.45;;;5.00;99.00;;;;;;5055550;28;20032;-55
2023/12/05 03:02:30;;;;;;;37.92;25.35;;;4.80;98.50;;;;;;5036639;28;20282;-55
2023/12/05 03:04:56;;;;;;;39.38;24.67;;;4.40;99.20;;;;;;5055578;28;20025;-55
2023/12/05 03:07:21;;;;;;;36.00;25.10;;;4.10;99.90;;;;;;5055002;28;20128;-56
2023/12/05 03:09:47;;;;;;;36.00;24.60;;;4.20;99.90;;;;;;5012812;28;20441;-55
2023/12/05 03:12:13;;;;;;;32.75;23.15;;;;;;;;;;5012856;28;20034;-55
2023/12/05 03:14:39;;;;;;;34.00;23.25;;;3.60;99.90;;;;;;5012830;28;20033;-56
2023/12/05 03:17:05;;;;;;;32.33;21.23;;;3.60;99.90;;;;;;5011979;28;20549;-55
2023/12/05 03:19:30;;;;;;;31.60;22.30;;;3.60;99.90;;;;;;4996173;28;20169;-55
2023/12/05 03:21:56;;;;;;;32.47;22.45;;;3.60;99.90;;;;;;5012742;28;20112;-56
2023/12/05 03:24:22;;;;;;;32.28;21.88;;;3.60;99.90;;;;;;5012663;28;20149;-55
2023/12/05 03:26:47;;;;;;;31.83;21.23;;;3.70;99.90;;;;;;5012536;28;20034;-55
2023/12/05 03:29:13;;;;;;;35.28;23.00;;;3.30;99.90;;;;;;5012532;28;20128;-55
2023/12/05 03:31:40;;;;;;;36.67;24.45;;;3.10;99.90;;;;;;4995789;28;20400;-56
2023/12/05 03:34:06;;;;;;;36.92;23.25;;;2.90;99.90;;;;;;5012549;28;20038;-55
2023/12/05 03:36:32;;;;;;;36.17;23.67;;;2.60;99.90;;;;;;5012400;28;20060;-55
2023/12/05 03:38:58;;;;;;;34.45;22.55;;;2.70;99.90;;;;;;5012212;28;20501;-55
2023/12/05 03:41:25;;;;;;;31.67;21.85;;;2.80;99.90;;;;;;5044483;28;20044;-55
2023/12/05 03:43:51;;;;;;;35.65;23.58;;;2.90;99.90;;;;;;5053800;28;20041;-55
2023/12/05 03:46:16;;;;;;;32.67;22.40;;;3.10;99.90;;;;;;5054526;28;20531;-55
2023/12/05 03:48:42;;;;;;;30.58;21.00;;;3.20;99.90;;;;;;5054277;28;20068;-55
2023/12/05 03:51:08;;;;;;;30.02;22.15;;;3.00;99.90;;;;;;5054213;28;20021;-55
2023/12/05 03:53:33;;;;;;;31.00;21.17;;;2.90;99.90;;;;;;5054236;28;20083;-55
2023/12/05 03:55:59;;;;;;;33.70;21.23;;;3.20;99.90;;;;;;5054202;28;20385;-55
2023/12/05 03:58:24;;;;;;;28.70;20.40;;;3.50;99.90;;;;;;5054616;28;20377;-55
2023/12/05 04:00:50;;;;;;;32.97;21.23;;;3.70;99.90;;;;;;5054212;28;20045;-55
2023/12/05 04:03:16;;;;;;;29.00;20.15;;;3.80;99.90;;;;;;5053865;28;20025;-55
2023/12/05 04:05:42;;;;;;;31.85;20.30;;;3.50;99.90;;;;;;5054240;28;20078;-55
2023/12/05 04:08:07;;;;;;;33.58;20.67;;;3.20;99.90;;;;;;5018593;28;20045;-55
2023/12/05 04:10:33;;;;;;;32.85;19.65;;;3.10;99.90;;;;;;5035814;28;20388;-54
2023/12/05 04:12:59;;;;;;;31.27;20.40;;;;;;;;;;5053733;28;20025;-55
2023/12/05 04:15:25;;;;;;;28.33;21.75;;;3.90;99.90;;;;;;5053728;28;20140;-55
2023/12/05 04:17:51;;;;;;;31.73;19.33;;;4.10;99.90;;;;;;5053558;28;20584;-55
2023/12/05 04:20:17;;;;;;;30.10;19.40;;;3.80;99.90;;;;;;5053727;28;20047;-55
2023/12/05 04:22:43;;;;;;;30.10;20.65;;;3.70;99.90;;;;;;5054007;28;20060;-55
2023/12/05 04:25:10;;;;;;;28.75;19.73;;;;;;;;;;5054088;28;20108;-55
2023/12/05 04:27:36;;;;;;;29.95;20.05;;;3.90;99.90;;;;;;5053750;28;20032;-55
2023/12/05 04:30:02;;;;;;;32.60;21.98;;;4.00;99.90;;;;;;5053621;28;20128;-55
2023/12/05 04:32:27;;;;;;;30.08;20.33;;;3.70;99.90;;;;;;5032335;28;20049;-55
2023/12/05 04:34:53;;;;;;;33.22;21.02;;;3.70;99.90;;;;;;5033798;28;20540;-55
2023/12/05 04:37:19;;;;;;;29.33;20.60;;;3.90;99.90;;;;;;5033821;28;20029;-55
2023/12/05 04:39:45;;;;;;;32.38;20.67;;;;;;;;;;4998128;28;20041;-55
2023/12/05 04:42:10;;;;;;;34.53;22.25;;;4.00;99.90;;;;;;5015557;28;20041;-55
2023/12/05 04:44:36;;;;;;;31.85;23.42;;;4.30;99.90;;;;;;5033190;28;20038;-55
2023/12/05 04:47:03;;;;;;;35.88;24.58;;;4.30;99.90;;;;;;5033061;28;20033;-55
2023/12/05 04:49:29;;;;;;;32.70;22.10;;;4.10;99.90;;;;;;4971597;28;20055;-55
2023/12/05 04:51:55;;;;;;;30.80;19.83;;;4.30;99.90;;;;;;4971747;28;20487;-55
2023/12/05 04:54:21;;;;;;;29.27;19.23;;;4.20;99.90;;;;;;4970745;28;20041;-55
2023/12/05 04:56:47;;;;;;;30.17;19.13;;;4.10;99.90;;;;;;4971806;28;20031;-55
2023/12/05 04:59:13;;;;;;;30.98;21.00;;;4.10;99.90;;;;;;4971763;28;20035;-55
2023/12/05 05:01:38;;;;;;;29.48;20.17;;;4.20;99.90;;;;;;4971497;28;20431;-55
2023/12/05 05:04:04;;;;;;;28.27;18.95;;;3.90;99.90;;;;;;4971606;28;20178;-55
2023/12/05 05:06:30;;;;;;;26.65;18.60;;;3.40;99.90;;;;;;4971620;28;20027;-55
2023/12/05 05:08:56;;;;;;;24.10;17.33;;;3.50;99.90;;;;;;4971274;28;20055;-55
2023/12/05 05:11:23;;;;;;;31.33;19.65;;;3.10;99.90;;;;;;4963749;28;20078;-55
2023/12/05 05:13:48;;;;;;;34.40;23.38;;;3.00;99.90;;;;;;4952122;29;20035;-55
2023/12/05 05:16:14;;;;;;;29.98;19.75;;;2.70;99.90;;;;;;4951849;28;20436;-55
2023/12/05 05:18:40;;;;;;;32.20;21.40;;;2.60;99.90;;;;;;4951877;28;20110;-55
2023/12/05 05:21:06;;;;;;;26.83;17.50;;;2.70;99.90;;;;;;5007019;28;20029;-55
2023/12/05 05:23:33;;;;;;;29.58;19.77;;;2.70;99.90;;;;;;5032350;28;20043;-55
2023/12/05 05:25:59;;;;;;;28.10;19.90;;;2.70;99.90;;;;;;5024245;28;20024;-56
2023/12/05 05:28:25;;;;;;;29.00;20.42;;;2.90;99.90;;;;;;5031328;28;20131;-55
2023/12/05 05:30:54;;;;;;;29.88;20.08;;;3.10;99.90;;;;;;5012321;28;20048;-55
2023/12/05 05:33:23;;;;;;;36.35;23.88;;;3.30;99.90;;;;;;5032108;28;20037;-55
2023/12/05 05:35:49;;;;;;;38.33;23.88;;;3.60;99.90;;;;;;5032227;28;20029;-55
2023/12/05 05:38:15;;;;;;;30.63;21.48;;;3.70;99.90;;;;;;5032462;28;20079;-55
2023/12/05 05:40:42;;;;;;;27.90;19.95;;;;;;;;;;5018009;28;20478;-55
2023/12/05 05:43:07;;;;;;;30.65;21.35;;;3.40;99.90;;;;;;5030614;28;20025;-55
2023/12/05 05:45:33;;;;;;;31.40;20.65;;;3.10;99.90;;;;;;5031949;28;20079;-55
2023/12/05 05:47:59;;;;;;;34.88;23.30;;;3.30;99.90;;;;;;5031954;28;20110;-55
2023/12/05 05:50:25;;;;;;;37.45;24.00;;;3.00;99.90;;;;;;5013536;28;20048;-55
2023/12/05 05:52:51;;;;;;;37.40;24.98;;;3.20;99.90;;;;;;5037431;28;20030;-55
2023/12/05 05:55:18;;;;;;;35.90;23.20;;;;;;;;;;5031965;28;20029;-55
2023/12/05 05:57:44;;;;;;;43.20;26.65;;;2.50;99.90;;;;;;5049197;28;20049;-56
2023/12/05 06:00:11;;;;;;;42.38;27.38;;;2.50;99.90;;;;;;5050087;28;20040;-55
2023/12/05 06:02:37;;;;;;;33.92;25.80;;;2.60;99.90;;;;;;5041220;28;20122;-55
2023/12/05 06:05:04;;;;;;;33.65;21.92;;;2.70;99.90;;;;;;5047398;28;20025;-55
2023/12/05 06:07:30;;;;;;;28.88;19.13;;;2.60;99.90;;;;;;5041380;28;20022;-55
2023/12/05 06:09:56;;;;;;;35.20;24.02;;;2.20;99.90;;;;;;5038231;28;20593;-55
2023/12/05 06:12:22;;;;;;;35.05;22.88;;;2.40;99.90;;;;;;5022289;28;20492;-52
2023/12/05 06:14:49;;;;;;;44.03;30.55;;;2.80;99.90;;;;;;5044579;28;20032;-53
2023/12/05 06:17:15;;;;;;;42.45;28.15;;;3.20;99.90;;;;;;5032375;28;20040;-54
2023/12/05 06:19:41;;;;;;;31.52;20.95;;;3.30;99.90;;;;;;5051799;28;20037;-54
2023/12/05 06:22:06;;;;;;;34.20;23.45;;;3.50;99.90;;;;;;5051692;28;20051;-54
2023/12/05 06:24:32;;;;;;;38.78;25.98;;;3.50;99.90;;;;;;5051518;28;20052;-54
2023/12/05 06:26:59;;;;;;;41.42;28.33;;;3.30;99.90;;;;;;5049280;28;20548;-54
2023/12/05 06:29:25;;;;;;;42.95;27.15;;;3.30;99.90;;;;;;5041819;28;20040;-54
2023/12/05 06:31:51;;;;;;;44.25;28.15;;;3.50;99.90;;;;;;5050941;28;20422;-54
2023/12/05 06:34:16;;;;;;;34.22;23.90;;;3.60;99.90;;;;;;5050509;28;20090;-54
2023/12/05 06:36:42;;;;;;;35.15;24.00;;;3.80;99.90;;;;;;5051353;28;20108;-54
2023/12/05 06:39:08;;;;;;;35.33;22.88;;;3.90;99.90;;;;;;5015723;28;20037;-54
2023/12/05 06:41:37;;;;;;;33.97;21.58;;;3.70;99.90;;;;;;5015936;28;20033;-54
2023/12/05 06:44:03;;;;;;;35.35;21.50;;;3.70;99.90;;;;;;5051620;28;20491;-54
2023/12/05 06:46:29;;;;;;;35.17;21.30;;;3.30;99.90;;;;;;5051313;28;20029;-54
2023/12/05 06:48:55;;;;;;;31.35;17.58;;;3.40;99.90;;;;;;5051213;28;20032;-54
2023/12/05 06:51:22;;;;;;;32.08;22.38;;;3.30;99.90;;;;;;5051091;28;20099;-53
2023/12/05 06:53:47;;;;;;;32.97;22.38;;;3.30;99.90;;;;;;5033413;28;20033;-54
2023/12/05 06:56:15;;;;;;;35.30;25.00;;;3.40;99.90;;;;;;5039142;28;20025;-54
2023/12/05 06:58:41;;;;;;;37.63;24.75;;;3.70;99.90;;;;;;5031386;28;20095;-54
2023/12/05 07:01:08;;;;;;;36.75;24.35;;;3.80;99.90;;;;;;5031500;28;20033;-54
2023/12/05 07:03:34;;;;;;;41.90;25.23;;;4.40;99.90;;;;;;5031339;28;20044;-54
2023/12/05 07:05:59;;;;;;;43.13;24.70;;;4.90;99.90;;;;;;5013523;28;20478;-54
2023/12/05 07:08:26;;;;;;;40.03;24.15;;;4.90;99.90;;;;;;5031472;28;20033;-54
2023/12/05 07:10:52;;;;;;;40.40;24.77;;;4.60;99.90;;;;;;5031079;28;20065;-54
2023/12/05 07:13:18;;;;;;;33.05;21.80;;;4.50;99.90;;;;;;5031253;28;20040;-54
2023/12/05 07:15:44;;;;;;;35.70;23.13;;;4.60;99.90;;;;;;5031428;28;20029;-53
2023/12/05 07:18:10;;;;;;;33.33;21.15;;;4.40;99.90;;;;;;5033357;28;20025;-54
2023/12/05 07:20:35;;;;;;;41.92;26.40;;;4.30;99.90;;;;;;5034799;28;20065;-54
2023/12/05 07:23:01;;;;;;;38.10;25.27;;;4.10;99.90;;;;;;5038234;28;20025;-54
2023/12/05 07:25:27;;;;;;;35.65;24.02;;;4.50;99.90;;;;;;5054629;28;20083;-54
2023/12/05 07:27:53;;;;;;;34.33;24.10;;;5.00;99.90;;;;;;5019337;28;20087;-54
2023/12/05 07:30:18;;;;;;;33.95;22.70;;;5.00;99.90;;;;;;5054739;28;20021;-54
2023/12/05 07:32:44;;;;;;;40.05;20.90;;;5.30;99.90;;;;;;5054353;28;20138;-54
2023/12/05 07:35:10;;;;;;;31.05;20.30;;;5.00;99.90;;;;;;5054559;28;20117;-54
2023/12/05 07:37:36;;;;;;;25.30;14.52;;;4.70;99.90;;;;;;5054491;28;20416;-54
2023/12/05 07:40:02;;;;;;;29.55;19.40;;;4.50;99.90;;;;;;5054592;28;20021;-54
2023/12/05 07:42:28;;;;;;;24.20;15.27;;;4.30;99.90;;;;;;5054315;28;20091;-54
2023/12/05 07:44:54;;;;;;;30.80;18.90;;;;;;;;;;5054363;28;20403;-54
2023/12/05 07:47:20;;;;;;;24.67;14.85;;;;;;;;;;5054237;28;20095;-54
2023/12/05 07:49:46;;;;;;;24.00;13.45;;;;;;;;;;5053702;28;20393;-54
2023/12/05 07:52:12;;;;;;;25.25;12.45;;;4.20;99.90;;;;;;5054214;28;20025;-54
2023/12/05 07:54:38;;;;;;;25.00;14.40;;;4.00;99.90;;;;;;5054160;28;20094;-54
2023/12/05 07:57:04;;;;;;;28.67;16.30;;;4.30;99.90;;;;;;5054018;28;20074;-53
2023/12/05 07:59:30;;;;;;;25.90;14.93;;;;;;;;;;5054238;28;20017;-54
2023/12/05 08:01:56;;;;;;;29.48;17.13;;;;;;;;;;5052617;28;20120;-53
2023/12/05 08:04:22;;;;;;;19.13;11.02;;;5.20;99.90;;;;;;5050557;28;20021;-54
2023/12/05 08:06:48;;;;;;;18.50;12.30;;;;;;;;;;5053762;28;20099;-54
2023/12/05 08:09:14;;;;;;;16.15;9.60;;;4.20;99.90;;;;;;5053954;28;20151;-54
2023/12/05 08:11:40;;;;;;;25.67;15.32;;;4.00;99.90;;;;;;5047454;28;20227;-54
2023/12/05 08:14:07;;;;;;;29.40;15.82;;;4.30;99.90;;;;;;5048409;28;20037;-53
2023/12/05 08:16:32;;;;;;;25.42;15.45;;;4.40;99.90;;;;;;5033878;28;20068;-54
2023/12/05 08:18:58;;;;;;;27.10;18.52;;;4.80;99.90;;;;;;5033596;28;20065;-53
2023/12/05 08:21:24;;;;;;;18.83;11.15;;;5.90;99.90;;;;;;5018325;28;20382;-56
2023/12/05 08:23:50;;;;;;;28.58;16.80;;;6.60;99.90;;;;;;5033727;28;20084;-52
2023/12/05 08:26:15;;;;;;;26.02;14.85;;;7.00;99.90;;;;;;5033561;28;20021;-52
2023/12/05 08:28:41;;;;;;;15.85;10.95;;;7.10;99.90;;;;;;5033455;28;20048;-53
2023/12/05 08:31:07;;;;;;;17.10;12.98;;;;;;;;;;5033220;28;20137;-53
2023/12/05 08:33:33;;;;;;;26.13;17.38;;;;;;;;;;5033358;28;20446;-53
2023/12/05 08:35:59;;;;;;;23.50;17.48;;;;;;;;;;5033418;28;20465;-52
2023/12/05 08:38:25;;;;;;;21.98;13.93;;;;;;;;;;5033326;28;20060;-52
2023/12/05 08:40:51;;;;;;;27.23;18.55;;;12.30;94.90;;;;;;5033267;28;20455;-52
2023/12/05 08:43:17;;;;;;;24.60;19.20;;;13.00;93.00;;;;;;5033485;28;20037;-52
2023/12/05 08:45:43;;;;;;;21.90;16.50;;;;;;;;;;5033343;28;20029;-52
2023/12/05 08:48:09;;;;;;;26.35;19.08;;;14.60;98.80;;;;;;5033061;28;20634;-53
2023/12/05 08:50:36;;;;;;;25.50;18.15;;;15.30;88.70;;;;;;5033478;28;20021;-52
2023/12/05 08:53:02;;;;;;;30.30;20.52;;;15.00;86.10;;;;;;5032994;28;20021;-52
2023/12/05 08:55:28;;;;;;;29.95;19.92;;;;;;;;;;5027979;28;20102;-53
2023/12/05 08:57:55;;;;;;;38.08;25.23;;;15.40;93.30;;;;;;5051487;28;20025;-53
2023/12/05 09:00:21;;;;;;;30.23;21.65;;;16.70;85.20;;;;;;5052774;28;20032;-53
2023/12/05 09:02:47;;;;;;;24.80;20.08;;;16.80;93.80;;;;;;5053046;28;20052;-52
2023/12/05 09:05:12;;;;;;;30.35;21.55;;;15.60;82.60;;;;;;5053303;28;20059;-56
2023/12/05 09:07:39;;;;;;;22.70;19.27;;;15.70;83.70;;;;;;5052573;28;20079;-54
2023/12/05 09:10:05;;;;;;;;;;;;;;;;;;5050519;28;20099;-53
2023/12/05 09:12:30;;;;;;;;;;;16.30;96.90;;;;;;5034344;28;20404;-54
2023/12/05 09:14:56;;;;;;;;;;;16.40;81.30;;;;;;5055459;28;19929;-52
2023/12/05 09:17:21;;;;;;;;;;;15.20;82.10;;;;;;5055827;28;19971;-53
2023/12/05 09:19:48;;;;;;;22.58;18.80;;;14.10;83.20;;;;;;5051246;28;20385;-52
2023/12/05 09:22:14;;;;;;;25.83;19.67;;;13.60;83.90;;;;;;5049887;28;20470;-52
2023/12/05 09:24:40;;;;;;;22.75;17.13;;;13.40;85.10;;;;;;5033699;28;20032;-52
2023/12/05 09:27:05;;;;;;;23.67;18.95;;;14.00;84.40;;;;;;5055132;28;20075;-53
2023/12/05 09:29:31;;;;;;;25.27;19.48;;;15.00;85.10;;;;;;5035374;28;20141;-53
2023/12/05 09:31:57;;;;;;;26.65;20.60;;;15.30;84.10;;;;;;5058052;28;20103;-52
2023/12/05 09:34:23;;;;;;;22.88;18.13;;;;;;;;;;5051208;28;20395;-52
2023/12/05 09:36:49;;;;;;;25.48;18.50;;;;;;;;;;5058602;28;20410;-53
2023/12/05 09:39:15;;;;;;;20.10;16.80;;;;;;;;;;5050192;28;20423;-52
2023/12/05 09:41:50;;;;;;;24.85;18.42;;;15.40;99.70;;;;;;5054954;28;20033;-51
2023/12/05 09:44:23;;;;;;;27.27;22.65;;;15.50;82.20;;;;;;5038253;28;22061;-51
2023/12/05 09:46:56;;;;;;;25.17;19.38;;;15.80;82.70;;;;;;5051860;28;20033;-51
2023/12/05 09:49:25;;;;;;;28.05;21.42;;;;;;;;;;5055006;28;20040;-52
2023/12/05 09:51:52;;;;;;;25.70;18.80;;;17.70;80.60;;;;;;5050783;28;20020;-53
2023/12/05 09:54:18;;;;;;;22.20;19.63;;;;;;;;;;5055709;28;20043;-54
2023/12/05 09:56:45;;;;;;;26.70;19.08;;;18.00;99.90;;;;;;5017372;28;20033;-54
2023/12/05 09:59:11;;;;;;;20.92;17.58;;;18.00;79.40;;;;;;5051067;28;20051;-54
2023/12/05 10:01:39;;;;;;;23.58;17.38;;;;;;;;;;5017136;28;20091;-52
2023/12/05 10:04:08;;;;;;;25.30;17.70;;;;;;;;;;5050779;28;20028;-55
2023/12/05 10:06:36;;;;;;;21.10;16.98;;;;;;;;;;5051155;28;20063;-54
2023/12/05 10:09:02;;;;;;;24.73;16.52;;;;;;;;;;5056487;28;20068;-54
2023/12/05 10:11:30;;;;;;;21.55;16.02;;;18.60;77.10;;;;;;5049513;28;20060;-52
2023/12/05 10:13:57;;;;;;;22.98;16.70;;;18.10;77.00;;;;;;5054215;28;20021;-54
2023/12/05 10:16:26;;;;;;;25.65;17.08;;;18.50;77.50;;;;;;5050189;28;20037;-52
2023/12/05 10:18:52;;;;;;;26.58;16.98;;;19.70;77.30;;;;;;5050160;28;20056;-51
2023/12/05 10:21:18;;;;;;;23.15;17.02;;;19.70;76.20;;;;;;5051549;28;20037;-52
2023/12/05 10:23:44;;;;;;;24.98;17.65;;;19.40;75.50;;;;;;5040343;28;20493;-52
2023/12/05 10:26:09;;;;;;;21.83;17.83;;;19.20;76.10;;;;;;5053701;28;20314;-52
2023/12/05 10:28:53;;;;;;;22.85;16.92;;;19.10;76.10;;;;;;5050269;28;20488;-52
2023/12/05 10:31:19;;;;;;;29.38;22.02;;;18.30;76.10;;;;;;5053231;28;20106;-51
2023/12/05 10:33:46;;;;;;;22.17;15.20;;;18.00;77.10;;;;;;5049264;28;20422;-53
2023/12/05 10:36:12;;;;;;;24.15;17.50;;;17.90;76.70;;;;;;5049944;28;20045;-51
2023/12/05 10:38:38;;;;;;;23.23;14.70;;;17.80;76.90;;;;;;5052354;28;20021;-52
2023/12/05 10:41:04;;;;;;;25.13;19.20;;;16.80;78.00;;;;;;5050301;28;20025;-53
2023/12/05 10:43:29;;;;;;;20.45;15.80;;;16.70;79.20;;;;;;5054898;28;20100;-51
2023/12/05 10:45:56;;;;;;;21.55;16.00;;;17.60;79.40;;;;;;5055341;28;20029;-51
2023/12/05 10:48:25;;;;;;;23.45;16.83;;;18.10;78.50;;;;;;5054927;28;20503;-52
2023/12/05 10:50:51;;;;;;;26.75;17.08;;;17.60;78.50;;;;;;5054241;28;20041;-52
2023/12/05 10:53:18;;;;;;;26.52;16.88;;;17.80;78.60;;;;;;5057496;28;20421;-51
2023/12/05 10:55:44;;;;;;;23.00;17.85;;;18.60;78.40;;;;;;5055099;28;20032;-51
2023/12/05 10:58:10;;;;;;;24.58;16.15;;;18.80;77.60;;;;;;5058846;28;20025;-52
2023/12/05 11:00:39;;;;;;;25.63;16.02;;;18.60;77.30;;;;;;5035111;28;20080;-53
2023/12/05 11:03:05;;;;;;;19.73;14.57;;;17.80;77.80;;;;;;5063028;28;20071;-53
2023/12/05 11:05:33;;;;;;;20.40;15.73;;;17.30;77.60;;;;;;5055452;28;20366;-52
2023/12/05 11:07:59;;;;;;;21.85;15.90;;;16.80;78.40;;;;;;5016997;28;20053;-53
2023/12/05 11:10:26;;;;;;;21.48;15.93;;;16.60;79.00;;;;;;5010443;28;20177;-53
2023/12/05 11:12:52;;;;;;;21.15;15.25;;;16.50;79.40;;;;;;5011539;28;20042;-53
2023/12/05 11:15:28;;;;;;;22.50;16.60;;;15.90;79.80;;;;;;5011925;28;20093;-55
2023/12/05 11:18:01;;;;;;;23.70;14.52;;;15.90;80.10;;;;;;5021062;28;20032;-51
2023/12/05 11:21:00;;;;;;;25.17;16.35;;;15.70;80.60;;;;;;5013957;28;20030;-52
2023/12/05 11:23:49;;;;;;;22.92;14.50;;;15.90;80.70;;;;;;5015075;28;20041;-51
2023/12/05 11:26:53;;;;;;;20.52;15.35;;;16.00;80.50;;;;;;5005346;28;20041;-51
2023/12/05 11:30:14;;;;;;;22.20;14.57;;;15.80;81.00;;;;;;5011559;28;20054;-52
2023/12/05 11:33:21;;;;;;;20.48;15.27;;;15.80;81.40;;;;;;4966961;28;20073;-51
2023/12/05 11:36:21;;;;;;;23.38;17.23;;;16.40;81.30;;;;;;4994489;28;20039;-52
2023/12/05 11:38:47;;;;;;;23.60;17.58;;;17.10;81.00;;;;;;5006101;28;20045;-50
2023/12/05 11:41:18;;;;;;;23.95;17.02;;;17.20;80.70;;;;;;5034073;28;20036;-52
2023/12/05 11:44:12;;;;;;;33.13;27.83;;;17.00;80.80;;;;;;5028580;28;20477;-51
2023/12/05 11:46:44;;;;;;;27.70;20.30;;;17.40;81.10;;;;;;5032862;28;20354;-54
2023/12/05 11:49:11;;;;;;;33.95;19.27;;;;;;;;;;5033688;28;20052;-55
2023/12/05 11:51:37;;;;;;;24.40;18.80;;;16.30;80.20;;;;;;5036194;28;20516;-56
2023/12/05 11:54:05;;;;;;;23.48;16.10;;;16.40;82.00;;;;;;4982718;28;20465;-57
2023/12/05 11:56:31;;;;;;;30.23;19.40;;;;;;;;;;4999991;28;20052;-55
2023/12/05 11:59:23;;;;;;;29.58;18.65;;;15.90;84.80;;;;;;4972253;28;20034;-56
2023/12/05 12:01:49;;;;;;;;;;;15.50;82.90;;;;;;4970657;28;20038;-55
2023/12/05 12:04:19;;;;;;;27.33;18.00;;;;;;;;;;4963696;28;19925;-55
2023/12/05 12:06:46;;;;;;;30.35;21.20;;;14.60;83.10;;;;;;4962308;28;20117;-54
2023/12/05 12:09:12;;;;;;;35.28;22.25;;;14.80;84.60;;;;;;4968245;28;20054;-55
2023/12/05 12:11:39;;;;;;;34.67;22.55;;;14.70;84.90;;;;;;4975257;28;20475;-57
2023/12/05 12:14:19;;;;;;;29.85;21.20;;;14.30;84.90;;;;;;4975421;28;20133;-60
2023/12/05 12:16:47;;;;;;;25.80;16.90;;;14.30;85.00;;;;;;4969777;28;20536;-56
2023/12/05 12:19:15;;;;;;;24.75;16.20;;;14.20;85.30;;;;;;4950464;28;20526;-58
2023/12/05 12:21:41;;;;;;;28.00;17.08;;;;;;;;;;4950435;29;20046;-54
2023/12/05 12:24:08;;;;;;;32.55;22.45;;;;;;;;;;4950044;29;20047;-56
2023/12/05 12:26:34;;;;;;;24.08;18.27;;;;;;;;;;4943959;28;20037;-53
2023/12/05 12:29:09;;;;;;;27.98;15.52;;;;;;;;;;4954619;28;20138;-55
2023/12/05 12:31:35;;;;;;;24.45;17.10;;;;;;;;;;5014074;28;20087;-57
2023/12/05 12:34:08;;;;;;;26.27;15.73;;;;;;;;;;5026152;28;20185;-53
2023/12/05 12:36:36;;;;;;;21.98;16.45;;;;;;;;;;5023644;28;20036;-55
2023/12/05 12:39:03;;;;;;;24.80;16.75;;;;;;;;;;5024688;28;20172;-53
2023/12/05 12:41:29;;;;;;;20.98;15.82;;;;;;;;;;5027145;28;20039;-56
2023/12/05 12:43:55;;;;;;;27.52;16.05;;;;;;;;;;5029201;28;20120;-52
2023/12/05 12:46:20;;;;;;;26.38;16.60;;;13.50;95.80;;;;;;5021725;28;20103;-56
2023/12/05 12:48:46;;;;;;;23.38;16.05;;;;;;;;;;4998551;28;20045;-57
2023/12/05 12:51:13;;;;;;;20.05;14.75;;;;;;;;;;5052510;28;20040;-53
2023/12/05 12:53:40;;;;;;;21.88;15.27;;;;;;;;;;5056680;28;20161;-56